createdAt,value
2023-03-26T00:01:09.068Z,9.95
2023-03-26T00:03:36.209Z,10.98
2023-03-26T00:06:03.483Z,9.98
2023-03-26T00:08:31.759Z,10.73
2023-03-26T00:11:00.019Z,9.95
2023-03-26T00:13:27.983Z,9.73
2023-03-26T00:15:55.010Z,9.77
2023-03-26T00:18:21.969Z,9.43
2023-03-26T00:20:48.850Z,9.50
2023-03-26T00:23:15.751Z,8.50
2023-03-26T00:25:43.989Z,9.50
2023-03-26T00:28:10.907Z,8.63
2023-03-26T00:30:37.990Z,7.97
2023-03-26T00:33:04.935Z,7.85
2023-03-26T00:35:31.876Z,7.85
2023-03-26T00:37:58.761Z,7.95
2023-03-26T00:40:25.647Z,7.88
2023-03-26T00:42:53.924Z,7.82
2023-03-26T00:45:20.810Z,7.82
2023-03-26T00:47:47.843Z,8.13
2023-03-26T00:50:14.850Z,7.80
2023-03-26T00:52:42.418Z,8.38
2023-03-26T00:55:09.738Z,7.65
2023-03-26T00:57:36.629Z,8.40
2023-03-26T01:00:06.464Z,7.65
2023-03-26T01:02:33.426Z,8.25
2023-03-26T01:05:00.370Z,7.88
2023-03-26T01:07:27.301Z,9.02
2023-03-26T01:09:54.564Z,8.68
2023-03-26T01:12:26.627Z,9.32
2023-03-26T01:14:54.771Z,8.75
2023-03-26T01:17:23.177Z,8.73
2023-03-26T01:19:52.453Z,8.32
2023-03-26T01:22:20.341Z,8.68
2023-03-26T01:24:48.611Z,8.38
2023-03-26T01:27:23.613Z,9.88
2023-03-26T01:29:53.032Z,8.45
2023-03-26T01:32:24.889Z,9.95
2023-03-26T01:34:58.416Z,8.35
2023-03-26T01:37:28.064Z,8.48
2023-03-26T01:39:57.118Z,9.05
2023-03-26T01:42:28.100Z,8.90
2023-03-26T01:44:56.955Z,8.48
2023-03-26T01:47:23.898Z,8.30
2023-03-26T01:49:50.893Z,8.73
2023-03-26T01:52:19.856Z,9.00
2023-03-26T01:54:46.785Z,8.75
2023-03-26T01:57:19.163Z,8.70
2023-03-26T01:59:54.971Z,9.57
2023-03-26T02:02:22.897Z,10.90
2023-03-26T02:04:51.622Z,10.73
2023-03-26T02:07:21.654Z,9.75
2023-03-26T02:09:49.753Z,9.32
2023-03-26T02:12:18.019Z,8.90
2023-03-26T02:14:45.143Z,8.52
2023-03-26T02:17:12.084Z,9.00
2023-03-26T02:19:39.124Z,9.80
2023-03-26T02:22:05.995Z,8.70
2023-03-26T02:24:32.879Z,8.43
2023-03-26T02:26:59.772Z,8.02
2023-03-26T02:29:28.027Z,8.93
2023-03-26T02:31:54.949Z,9.55
2023-03-26T02:34:21.874Z,7.88
2023-03-26T02:36:48.771Z,8.85
2023-03-26T02:39:15.757Z,8.55
2023-03-26T02:41:42.632Z,7.15
2023-03-26T02:44:09.544Z,7.70
2023-03-26T02:46:37.816Z,7.60
2023-03-26T02:49:04.732Z,8.60
2023-03-26T02:51:31.590Z,7.10
2023-03-26T02:53:58.490Z,8.18
2023-03-26T02:56:25.384Z,8.73
2023-03-26T02:58:52.314Z,8.15
2023-03-26T03:01:19.237Z,7.70
2023-03-26T03:03:47.541Z,7.53
2023-03-26T03:06:14.610Z,8.13
2023-03-26T03:08:41.535Z,8.20
2023-03-26T03:11:09.275Z,6.05
2023-03-26T03:13:36.137Z,6.63
2023-03-26T03:16:03.083Z,6.60
2023-03-26T03:18:29.954Z,7.00
2023-03-26T03:20:58.228Z,7.47
2023-03-26T03:23:25.136Z,6.85
2023-03-26T03:25:52.366Z,6.15
2023-03-26T03:28:19.590Z,6.63
2023-03-26T03:30:46.458Z,5.78
2023-03-26T03:33:13.328Z,5.57
2023-03-26T03:35:40.352Z,5.22
2023-03-26T03:38:08.631Z,4.88
2023-03-26T03:40:35.594Z,5.78
2023-03-26T03:43:02.491Z,5.00
2023-03-26T03:45:29.391Z,5.70
2023-03-26T03:47:56.454Z,4.70
2023-03-26T03:50:23.367Z,5.22
2023-03-26T03:52:50.263Z,5.60
2023-03-26T03:55:18.694Z,6.03
2023-03-26T03:57:45.588Z,5.80
2023-03-26T04:00:13.708Z,5.35
2023-03-26T04:02:40.781Z,5.50
2023-03-26T04:05:08.262Z,5.60
2023-03-26T04:07:35.130Z,5.20
2023-03-26T04:10:02.047Z,5.35
2023-03-26T04:12:30.487Z,5.00
2023-03-26T04:14:57.454Z,5.15
2023-03-26T04:17:24.540Z,5.38
2023-03-26T04:19:51.447Z,5.75
2023-03-26T04:22:18.302Z,4.93
2023-03-26T04:24:45.186Z,5.07
2023-03-26T04:27:14.732Z,5.88
2023-03-26T04:29:44.114Z,4.80
2023-03-26T04:32:12.271Z,5.80
2023-03-26T04:34:39.183Z,5.13
2023-03-26T04:37:06.097Z,5.25
2023-03-26T04:39:32.981Z,4.93
2023-03-26T04:41:59.909Z,5.53
2023-03-26T04:44:26.800Z,4.68
2023-03-26T04:46:55.089Z,4.75
2023-03-26T04:49:21.997Z,4.78
2023-03-26T04:51:48.889Z,4.82
2023-03-26T04:54:16.080Z,4.30
2023-03-26T04:56:44.587Z,4.38
2023-03-26T04:59:12.878Z,4.72
2023-03-26T05:01:39.838Z,4.95
2023-03-26T05:04:08.198Z,4.75
2023-03-26T05:06:35.148Z,3.90
2023-03-26T05:09:02.088Z,4.80
2023-03-26T05:11:28.979Z,3.80
2023-03-26T05:13:55.876Z,4.97
2023-03-26T05:16:22.852Z,4.88
2023-03-26T05:18:49.828Z,3.35
2023-03-26T05:21:18.104Z,3.50
2023-03-26T05:23:45.053Z,3.88
2023-03-26T05:26:11.989Z,3.30
2023-03-26T05:28:38.890Z,4.47
2023-03-26T05:31:06.193Z,3.50
2023-03-26T05:33:33.192Z,3.80
2023-03-26T05:36:00.374Z,4.25
2023-03-26T05:38:28.924Z,4.03
2023-03-26T05:40:58.469Z,3.95
2023-03-26T05:43:25.402Z,3.72
2023-03-26T05:45:52.349Z,3.85
2023-03-26T05:48:19.315Z,3.33
2023-03-26T05:50:48.185Z,3.60
2023-03-26T05:53:15.066Z,3.50
2023-03-26T05:55:43.388Z,4.07
2023-03-26T05:58:10.245Z,3.60
2023-03-26T06:00:37.191Z,3.90
2023-03-26T06:03:04.293Z,3.95
2023-03-26T06:05:32.316Z,3.58
2023-03-26T06:07:59.205Z,3.88
2023-03-26T06:10:26.159Z,3.92
2023-03-26T06:12:54.423Z,3.70
2023-03-26T06:15:21.343Z,3.83
2023-03-26T06:17:48.215Z,4.25
2023-03-26T06:20:15.373Z,4.43
2023-03-26T06:22:42.266Z,4.43
2023-03-26T06:25:09.431Z,3.92
2023-03-26T06:27:36.308Z,4.45
2023-03-26T06:30:05.587Z,4.63
2023-03-26T06:32:32.512Z,4.18
2023-03-26T06:34:59.396Z,3.83
2023-03-26T06:37:26.285Z,3.58
2023-03-26T06:39:53.177Z,3.50
2023-03-26T06:42:20.072Z,4.93
2023-03-26T06:44:46.999Z,3.85
2023-03-26T06:47:15.263Z,4.18
2023-03-26T06:49:43.133Z,4.03
2023-03-26T06:52:11.763Z,4.20
2023-03-26T06:54:38.698Z,4.00
2023-03-26T06:57:05.609Z,4.82
2023-03-26T06:59:32.562Z,4.35
2023-03-26T07:01:59.428Z,4.47
2023-03-26T07:04:27.786Z,3.78
2023-03-26T07:06:54.753Z,4.50
2023-03-26T07:09:21.803Z,4.32
2023-03-26T07:11:48.688Z,4.63
2023-03-26T07:14:15.579Z,4.07
2023-03-26T07:16:42.474Z,5.07
2023-03-26T07:19:09.419Z,4.32
2023-03-26T07:21:38.382Z,4.70
2023-03-26T07:24:06.024Z,3.55
2023-03-26T07:26:34.654Z,4.32
2023-03-26T07:29:05.314Z,3.63
2023-03-26T07:31:34.305Z,4.60
2023-03-26T07:34:04.179Z,4.65
2023-03-26T07:36:32.940Z,4.28
2023-03-26T07:39:08.991Z,3.72
2023-03-26T07:41:39.952Z,3.65
2023-03-26T07:44:28.277Z,3.92
2023-03-26T07:46:55.641Z,3.85
2023-03-26T07:49:23.014Z,4.97
2023-03-26T07:51:50.414Z,4.28
2023-03-26T07:54:19.242Z,4.28
2023-03-26T07:56:48.864Z,4.38
2023-03-26T07:59:20.680Z,4.15
2023-03-26T08:01:56.533Z,3.53
2023-03-26T08:04:36.349Z,3.45
2023-03-26T08:07:05.301Z,4.28
2023-03-26T08:09:34.954Z,4.00
2023-03-26T08:12:06.405Z,4.55
2023-03-26T08:14:45.161Z,3.63
2023-03-26T08:17:13.345Z,3.28
2023-03-26T08:19:54.502Z,4.13
2023-03-26T08:22:23.349Z,3.58
2023-03-26T08:25:13.816Z,4.05
2023-03-26T08:27:41.062Z,3.70
2023-03-26T08:30:10.013Z,4.20
2023-03-26T08:32:37.324Z,4.90
2023-03-26T08:35:04.800Z,4.28
2023-03-26T08:37:31.702Z,3.55
2023-03-26T08:39:59.954Z,3.58
2023-03-26T08:42:42.840Z,3.90
2023-03-26T08:45:28.925Z,3.70
2023-03-26T08:48:44.497Z,4.88
2023-03-26T08:51:33.875Z,3.13
2023-03-26T08:54:34.533Z,3.50
2023-03-26T08:57:18.610Z,4.22
2023-03-26T09:00:17.436Z,3.33
2023-03-26T09:03:17.453Z,3.53
2023-03-26T09:06:12.648Z,3.60
2023-03-26T09:09:19.097Z,3.35
2023-03-26T09:12:23.777Z,3.25
2023-03-26T09:15:28.307Z,2.95
2023-03-26T09:18:29.819Z,2.63
2023-03-26T09:21:14.167Z,2.60
2023-03-26T09:26:44.953Z,3.15
2023-03-26T09:32:24.793Z,2.67
2023-03-26T09:35:13.942Z,2.80
2023-03-26T09:37:58.020Z,3.15
2023-03-26T09:40:28.800Z,2.35
2023-03-26T09:42:56.523Z,3.42
2023-03-26T09:45:34.805Z,3.05
2023-03-26T09:48:24.282Z,2.95
2023-03-26T09:51:03.259Z,2.35
2023-03-26T09:53:59.440Z,2.63
2023-03-26T09:56:31.901Z,2.80
2023-03-26T09:59:40.194Z,2.95
2023-03-26T10:02:18.645Z,2.75
2023-03-26T10:04:57.750Z,2.95
2023-03-26T10:07:41.115Z,2.53
2023-03-26T10:10:09.081Z,2.70
2023-03-26T10:12:36.967Z,3.28
2023-03-26T10:15:11.657Z,2.88
2023-03-26T10:17:46.586Z,2.90
2023-03-26T10:20:31.909Z,3.08
2023-03-26T10:23:04.651Z,2.80
2023-03-26T10:25:40.981Z,3.03
2023-03-26T10:28:24.784Z,2.75
2023-03-26T10:31:06.816Z,2.80
2023-03-26T10:33:38.849Z,2.90
2023-03-26T10:36:32.142Z,2.92
2023-03-26T10:39:06.714Z,2.58
2023-03-26T10:41:37.163Z,2.85
2023-03-26T10:44:33.523Z,3.20
2023-03-26T10:47:35.197Z,2.72
2023-03-26T10:50:23.119Z,2.83
2023-03-26T10:52:54.231Z,2.47
2023-03-26T10:55:24.174Z,2.42
2023-03-26T10:57:52.953Z,2.90
2023-03-26T11:00:20.848Z,3.50
2023-03-26T11:02:59.357Z,2.38
2023-03-26T11:05:41.358Z,2.30
2023-03-26T11:08:10.753Z,3.00
2023-03-26T11:10:44.849Z,2.47
2023-03-26T11:15:42.881Z,2.60
2023-03-26T11:18:13.495Z,2.92
2023-03-26T11:20:41.728Z,2.58
2023-03-26T11:23:33.079Z,2.75
2023-03-26T11:26:11.904Z,2.78
2023-03-26T11:29:04.356Z,2.85
2023-03-26T11:31:45.512Z,2.70
2023-03-26T11:34:14.935Z,2.37
2023-03-26T11:36:43.655Z,2.63
2023-03-26T11:39:13.130Z,2.97
2023-03-26T11:41:39.978Z,2.60
2023-03-26T11:44:15.148Z,2.17
2023-03-26T11:46:44.352Z,2.47
2023-03-26T11:49:12.384Z,2.25
2023-03-26T11:51:39.702Z,2.60
2023-03-26T11:54:07.464Z,2.65
2023-03-26T11:56:37.490Z,3.35
2023-03-26T11:59:05.488Z,2.80
2023-03-26T12:01:44.554Z,2.53
2023-03-26T12:04:12.349Z,2.22
2023-03-26T12:06:39.296Z,2.33
2023-03-26T12:09:15.900Z,2.75
2023-03-26T12:11:44.183Z,2.33
2023-03-26T12:14:16.277Z,3.33
2023-03-26T17:22:12.459Z,1.85
2023-03-26T17:24:42.785Z,2.00
2023-03-26T17:27:18.834Z,2.05
2023-03-26T17:29:57.147Z,2.28
2023-03-26T17:32:24.381Z,2.30
2023-03-26T17:35:00.350Z,1.90
2023-03-26T17:37:40.148Z,2.05
2023-03-26T17:40:47.645Z,2.00
2023-03-26T17:43:32.473Z,1.83
2023-03-26T17:46:02.883Z,2.08
2023-03-26T17:48:32.515Z,2.10
2023-03-26T17:51:01.343Z,1.90
2023-03-26T17:53:29.934Z,1.88
2023-03-26T17:55:57.870Z,1.95
2023-03-26T17:58:27.057Z,2.10
2023-03-26T18:00:59.051Z,2.03
2023-03-26T18:03:30.914Z,2.33
2023-03-26T18:06:06.045Z,1.88
2023-03-26T18:08:46.617Z,2.22
2023-03-26T18:11:32.272Z,1.75
